createdAt,value
2022-12-11T00:00:17.263Z,98.58
2022-12-11T00:04:18.801Z,99.90
2022-12-11T00:08:18.293Z,98.45
2022-12-11T00:12:17.903Z,97.98
2022-12-11T00:16:19.531Z,100.00
2022-12-11T00:20:24.423Z,100.00
2022-12-11T00:24:23.975Z,100.00
2022-12-11T00:28:23.576Z,100.00
2022-12-11T00:32:22.564Z,100.00
2022-12-11T00:36:26.708Z,99.56
2022-12-11T00:40:26.180Z,98.16
2022-12-11T00:44:25.676Z,96.10
2022-12-11T00:48:25.205Z,95.73
2022-12-11T00:52:26.842Z,92.92
2022-12-11T00:56:26.416Z,91.11
2022-12-11T01:00:26.829Z,90.77
2022-12-11T01:04:26.458Z,90.93
2022-12-11T01:08:28.281Z,91.88
2022-12-11T01:12:28.235Z,92.34
2022-12-11T01:16:27.950Z,93.00
2022-12-11T01:20:29.374Z,93.51
2022-12-11T01:24:30.995Z,93.57
2022-12-11T01:28:30.570Z,93.59
2022-12-11T01:32:30.764Z,92.72
2022-12-11T01:36:30.308Z,91.76
2022-12-11T01:40:32.427Z,91.25
2022-12-11T01:45:09.297Z,91.58
2022-12-11T01:49:13.021Z,90.64
2022-12-11T01:53:16.084Z,90.62
2022-12-11T01:57:18.367Z,91.60
2022-12-11T02:01:24.703Z,91.24
2022-12-11T02:05:24.328Z,92.03
2022-12-11T02:09:27.304Z,93.67
2022-12-11T02:13:36.870Z,94.73
2022-12-11T02:17:42.819Z,95.24
2022-12-11T02:21:45.682Z,96.24
2022-12-11T02:25:54.350Z,96.13
2022-12-11T02:30:03.118Z,95.40
2022-12-11T02:34:06.957Z,94.74
2022-12-11T02:38:10.648Z,95.00
2022-12-11T02:42:11.830Z,93.42
2022-12-11T02:46:14.371Z,91.70
2022-12-11T02:50:19.047Z,89.76
2022-12-11T02:54:22.458Z,88.89
2022-12-11T02:58:24.828Z,88.17
2022-12-11T03:02:26.654Z,87.71
2022-12-11T03:06:31.269Z,85.98
2022-12-11T03:10:30.763Z,85.90
2022-12-11T03:14:30.310Z,85.03
2022-12-11T03:18:37.053Z,84.16
2022-12-11T03:22:42.584Z,82.88
2022-12-11T03:26:46.230Z,82.76
2022-12-11T03:30:47.252Z,82.33
2022-12-11T03:34:58.482Z,81.70
2022-12-11T03:39:00.545Z,81.26
2022-12-11T03:43:00.574Z,81.43
2022-12-11T03:47:02.098Z,81.29
2022-12-11T03:51:06.941Z,81.47
2022-12-11T03:55:08.890Z,80.61
2022-12-11T03:59:08.587Z,80.77
2022-12-11T04:03:17.577Z,80.38
2022-12-11T04:07:19.136Z,80.69
2022-12-11T04:11:36.510Z,80.09
2022-12-11T04:15:36.158Z,78.95
2022-12-11T04:19:52.259Z,78.30
2022-12-11T04:24:09.990Z,77.49
2022-12-11T04:28:09.661Z,76.63
2022-12-11T04:32:09.093Z,76.68
2022-12-11T04:36:09.639Z,76.91
2022-12-11T04:40:15.189Z,76.74
2022-12-11T04:44:16.811Z,76.48
2022-12-11T04:48:16.280Z,76.13
2022-12-11T04:52:15.863Z,76.46
2022-12-11T04:56:18.486Z,76.32
2022-12-11T05:00:19.289Z,76.12
2022-12-11T05:04:18.771Z,75.69
2022-12-11T05:08:18.833Z,75.56
2022-12-11T05:12:20.561Z,76.04
2022-12-11T05:16:20.177Z,75.32
2022-12-11T05:20:19.822Z,75.95
2022-12-11T05:24:19.390Z,76.00
2022-12-11T05:28:20.976Z,75.91
2022-12-11T05:32:20.728Z,76.01
2022-12-11T05:36:22.926Z,75.70
2022-12-11T05:40:22.377Z,75.42
2022-12-11T05:44:24.339Z,75.96
2022-12-11T05:48:23.888Z,75.99
2022-12-11T05:52:23.471Z,76.09
2022-12-11T05:56:26.023Z,76.05
2022-12-11T06:00:31.538Z,75.93
2022-12-11T06:04:33.963Z,76.41
2022-12-11T06:08:33.539Z,77.02
2022-12-11T06:12:33.377Z,77.11
2022-12-11T06:16:35.127Z,77.51
2022-12-11T06:20:35.281Z,77.71
2022-12-11T06:24:34.712Z,77.45
2022-12-11T06:28:34.152Z,77.28
2022-12-11T06:32:35.783Z,77.40
2022-12-11T06:36:35.362Z,77.84
2022-12-11T06:40:34.856Z,78.16
2022-12-11T06:44:34.382Z,78.26
2022-12-11T06:48:36.466Z,78.77
2022-12-11T06:52:36.956Z,78.56
2022-12-11T06:56:37.423Z,78.80
2022-12-11T07:00:37.509Z,78.19
2022-12-11T07:04:38.682Z,78.45
2022-12-11T07:08:38.290Z,78.64
2022-12-11T07:12:38.142Z,78.62
2022-12-11T07:16:39.819Z,78.37
2022-12-11T07:20:41.025Z,78.38
2022-12-11T07:24:40.565Z,77.98
2022-12-11T07:28:40.051Z,78.07
2022-12-11T07:32:38.719Z,78.22
2022-12-11T07:36:40.297Z,78.39
2022-12-11T07:40:39.816Z,78.23
2022-12-11T07:44:39.359Z,77.59
2022-12-11T07:48:39.948Z,77.01
2022-12-11T07:52:41.752Z,74.27
2022-12-11T07:56:43.866Z,73.77
2022-12-11T08:00:43.255Z,73.96
2022-12-11T08:04:43.054Z,73.31
2022-12-11T08:08:45.247Z,72.95
2022-12-11T08:12:44.886Z,72.32
2022-12-11T08:16:44.726Z,71.89
2022-12-11T08:20:44.345Z,71.29
2022-12-11T08:24:46.318Z,70.65
2022-12-11T08:28:46.082Z,70.19
2022-12-11T08:32:45.573Z,69.90
2022-12-11T08:36:46.586Z,68.96
2022-12-11T08:40:48.320Z,68.26
2022-12-11T08:44:47.863Z,67.38
2022-12-11T08:48:47.691Z,66.34
2022-12-11T08:52:47.488Z,69.37
2022-12-11T08:56:51.310Z,70.94
2022-12-11T09:00:53.295Z,72.47
2022-12-11T09:04:52.600Z,73.39
2022-12-11T09:08:56.062Z,74.16
2022-12-11T09:12:57.306Z,74.20
2022-12-11T09:16:56.888Z,74.58
2022-12-11T09:21:03.123Z,71.76
2022-12-11T09:25:02.699Z,70.10
2022-12-11T09:29:05.238Z,67.05
2022-12-11T09:33:04.787Z,64.65
2022-12-11T09:37:04.338Z,65.25
2022-12-11T09:41:04.465Z,63.82
2022-12-11T09:45:07.262Z,64.02
2022-12-11T09:49:16.352Z,62.80
2022-12-11T09:53:20.527Z,60.38
2022-12-11T09:57:34.237Z,60.50
2022-12-11T10:01:44.156Z,62.20
2022-12-11T10:05:51.070Z,61.60
2022-12-11T10:09:58.524Z,61.06
2022-12-11T10:14:08.684Z,60.65
2022-12-11T10:18:16.808Z,63.60
2022-12-11T10:22:23.025Z,63.72
2022-12-11T10:26:23.828Z,64.39
2022-12-11T10:30:30.401Z,65.96
2022-12-11T10:34:37.243Z,66.43
2022-12-11T10:38:42.431Z,66.52
2022-12-11T10:42:45.607Z,67.70
2022-12-11T10:46:46.320Z,67.88
2022-12-11T10:50:59.136Z,68.69
2022-12-11T10:55:02.090Z,69.70
2022-12-11T10:59:03.209Z,70.83
2022-12-11T11:03:04.273Z,71.57
2022-12-11T11:07:14.524Z,72.33
2022-12-11T11:11:28.825Z,74.30
2022-12-11T11:15:30.299Z,74.97
2022-12-11T11:19:36.950Z,75.29
2022-12-11T11:23:46.321Z,75.58
2022-12-11T11:27:53.657Z,76.06
2022-12-11T11:31:53.423Z,76.63
2022-12-11T11:35:56.459Z,75.36
2022-12-11T11:40:04.963Z,74.52
2022-12-11T11:44:08.950Z,74.82
2022-12-11T11:54:13.071Z,73.79
2022-12-11T11:58:36.317Z,75.00
2022-12-11T12:02:35.786Z,75.88
2022-12-11T12:07:02.708Z,75.08
2022-12-11T12:11:13.413Z,75.13
2022-12-11T12:15:47.641Z,74.92
2022-12-11T12:19:58.217Z,76.25
2022-12-11T12:25:10.059Z,76.23
2022-12-11T12:29:30.908Z,77.33
2022-12-11T12:33:47.387Z,75.68
2022-12-11T12:37:59.122Z,76.44
2022-12-11T12:42:08.195Z,76.97
2022-12-11T12:46:21.906Z,76.46
2022-12-11T12:50:27.168Z,76.90
2022-12-11T12:54:39.156Z,78.62
2022-12-11T12:58:48.442Z,79.71
2022-12-11T13:03:03.733Z,79.78
2022-12-11T13:07:25.511Z,80.19
2022-12-11T13:11:36.246Z,80.45
2022-12-11T13:15:43.514Z,82.45
2022-12-11T13:19:47.929Z,82.88
2022-12-11T13:23:51.487Z,82.98
2022-12-11T13:27:51.967Z,83.25
2022-12-11T13:32:00.915Z,83.56
2022-12-11T13:36:30.886Z,81.53
2022-12-11T13:40:40.090Z,81.83
2022-12-11T13:44:43.886Z,82.13
2022-12-11T13:48:49.704Z,82.77
2022-12-11T13:52:56.100Z,82.39
2022-12-11T13:57:17.679Z,82.54
2022-12-11T14:01:23.293Z,84.52
2022-12-11T14:05:27.365Z,84.66
2022-12-11T14:09:29.662Z,84.84
2022-12-11T14:13:41.666Z,85.38
2022-12-11T14:17:51.355Z,85.61
2022-12-11T14:22:03.445Z,84.67
2022-12-11T14:26:17.330Z,85.21
2022-12-11T14:30:27.033Z,85.39
2022-12-11T14:34:28.438Z,84.27
2022-12-11T14:38:32.102Z,84.74
2022-12-11T14:42:35.926Z,86.17
2022-12-11T14:46:46.069Z,86.94
2022-12-11T14:50:50.049Z,88.27
2022-12-11T14:54:56.636Z,87.00
2022-12-11T14:59:00.467Z,86.02
2022-12-11T15:03:14.211Z,86.22
2022-12-11T15:07:27.495Z,85.99
2022-12-11T15:11:37.051Z,85.90
2022-12-11T15:15:48.258Z,85.98
2022-12-11T15:19:56.876Z,86.78
2022-12-11T15:24:02.638Z,86.75
2022-12-11T15:28:04.893Z,86.32
2022-12-11T15:32:26.247Z,86.25
2022-12-11T15:36:48.671Z,87.91
2022-12-11T15:40:57.816Z,87.39
2022-12-11T15:44:58.286Z,89.40
2022-12-11T15:48:59.733Z,89.85
2022-12-11T15:53:27.161Z,90.10
2022-12-11T15:57:34.092Z,89.70
2022-12-11T16:01:34.213Z,89.55
2022-12-11T16:05:33.969Z,89.71
2022-12-11T16:09:45.999Z,89.14
2022-12-11T16:13:46.142Z,89.53
2022-12-11T16:17:49.370Z,89.47
2022-12-11T16:21:49.734Z,88.91
2022-12-11T16:25:52.258Z,89.89
2022-12-11T16:29:51.979Z,89.65
2022-12-11T16:33:52.552Z,91.49
2022-12-11T16:37:56.694Z,92.80
2022-12-11T16:42:06.595Z,93.78
2022-12-11T16:46:14.857Z,93.90
2022-12-11T16:50:17.645Z,94.53
2022-12-11T16:54:23.627Z,93.00
2022-12-11T16:58:35.270Z,94.89
2022-12-11T17:07:33.154Z,99.15
2022-12-11T17:11:34.597Z,100.00
2022-12-11T17:15:46.057Z,100.00
2022-12-11T17:20:13.884Z,100.00
2022-12-11T17:24:18.437Z,100.00
2022-12-11T17:28:18.599Z,100.00
2022-12-11T17:32:24.863Z,100.00
2022-12-11T17:36:27.349Z,100.00
2022-12-11T17:40:27.625Z,100.00
2022-12-11T17:44:30.058Z,100.00
2022-12-11T17:48:32.342Z,100.00
2022-12-11T17:52:44.005Z,100.00
2022-12-11T17:56:44.824Z,100.00
2022-12-11T18:00:57.985Z,100.00
2022-12-11T18:05:03.623Z,100.00
2022-12-11T18:09:03.207Z,100.00
2022-12-11T18:13:07.846Z,100.00
2022-12-11T18:17:57.406Z,100.00
2022-12-11T18:22:25.022Z,100.00
2022-12-11T18:26:34.165Z,100.00
2022-12-11T18:30:43.510Z,100.00
2022-12-11T18:34:49.209Z,100.00
2022-12-11T18:38:52.101Z,100.00
2022-12-11T18:43:20.211Z,100.00
2022-12-11T18:47:25.495Z,100.00
2022-12-11T18:51:27.003Z,100.00
2022-12-11T18:55:34.129Z,100.00
2022-12-11T18:59:34.968Z,100.00
2022-12-11T19:03:34.521Z,100.00
2022-12-11T19:07:34.423Z,100.00
2022-12-11T19:11:41.045Z,100.00
2022-12-11T19:15:42.215Z,100.00
2022-12-11T19:19:42.856Z,100.00
2022-12-11T19:23:43.228Z,100.00
2022-12-11T19:27:49.770Z,100.00
2022-12-11T19:31:49.871Z,100.00
2022-12-11T19:35:49.760Z,100.00
2022-12-11T19:39:49.728Z,100.00
2022-12-11T19:43:53.143Z,100.00
2022-12-11T19:47:54.379Z,100.00
2022-12-11T19:51:54.120Z,100.00
2022-12-11T19:55:55.108Z,100.00
2022-12-11T19:59:57.506Z,100.00
2022-12-11T20:03:59.811Z,100.00
2022-12-11T20:08:27.360Z,100.00
2022-12-11T20:12:20.079Z,100.00
2022-12-11T20:16:39.214Z,100.00
2022-12-11T20:20:41.977Z,100.00
2022-12-11T20:24:41.649Z,100.00
2022-12-11T20:28:41.707Z,100.00
2022-12-11T20:32:45.729Z,100.00
2022-12-11T20:36:45.691Z,100.00
2022-12-11T20:40:48.010Z,100.00
2022-12-11T20:44:49.375Z,100.00
2022-12-11T20:48:51.635Z,100.00
2022-12-11T20:52:54.049Z,100.00
2022-12-11T20:56:59.473Z,100.00
2022-12-11T21:00:59.261Z,100.00
2022-12-11T21:05:01.210Z,100.00
2022-12-11T21:09:00.677Z,100.00
2022-12-11T21:13:00.364Z,100.00
2022-12-11T21:16:59.978Z,100.00
2022-12-11T21:21:01.989Z,100.00
2022-12-11T21:25:01.821Z,100.00
2022-12-11T21:29:01.643Z,100.00
2022-12-11T21:33:02.636Z,100.00
2022-12-11T21:37:04.471Z,100.00
2022-12-11T21:41:10.177Z,100.00
2022-12-11T21:49:29.988Z,100.00
2022-12-11T21:53:31.668Z,100.00
2022-12-11T21:57:30.975Z,100.00
2022-12-11T22:01:34.536Z,100.00
2022-12-11T22:05:34.350Z,100.00
2022-12-11T22:09:36.079Z,100.00
2022-12-11T22:13:35.825Z,100.00
2022-12-11T22:17:36.727Z,100.00
2022-12-11T22:21:36.330Z,100.00
2022-12-11T22:25:37.741Z,100.00
2022-12-11T22:29:37.389Z,100.00
2022-12-11T22:33:36.534Z,100.00
2022-12-11T22:37:35.834Z,100.00
2022-12-11T22:41:41.726Z,100.00
2022-12-11T22:45:42.135Z,100.00
2022-12-11T22:49:42.278Z,100.00
2022-12-11T22:53:41.567Z,100.00
2022-12-11T22:57:43.273Z,100.00
2022-12-11T23:01:43.027Z,100.00
2022-12-11T23:05:42.928Z,100.00
2022-12-11T23:09:42.599Z,100.00
2022-12-11T23:13:44.398Z,100.00
2022-12-11T23:17:44.089Z,100.00
2022-12-11T23:21:43.546Z,100.00
2022-12-11T23:25:43.703Z,100.00
2022-12-11T23:29:45.406Z,100.00
2022-12-11T23:33:47.740Z,99.75
2022-12-11T23:37:47.316Z,99.38
2022-12-11T23:41:47.595Z,100.00
2022-12-11T23:45:50.233Z,100.00
2022-12-11T23:49:49.809Z,99.51
2022-12-11T23:53:51.712Z,99.67
2022-12-11T23:57:51.245Z,99.34
